createdAt,value
2022-11-24T00:02:53.515Z,12.50
2022-11-24T00:05:55.978Z,11.93
2022-11-24T00:08:58.701Z,11.18
2022-11-24T00:12:01.339Z,11.70
2022-11-24T00:15:03.769Z,13.50
2022-11-24T00:18:06.229Z,15.05
2022-11-24T00:21:08.872Z,11.40
2022-11-24T00:24:11.929Z,13.00
2022-11-24T00:27:14.023Z,17.50
2022-11-24T00:30:16.420Z,14.93
2022-11-24T00:33:18.553Z,13.25
2022-11-24T00:36:22.789Z,12.18
2022-11-24T00:39:25.032Z,12.85
2022-11-24T00:42:27.439Z,12.02
2022-11-24T00:45:29.515Z,11.40
2022-11-24T00:48:32.041Z,14.98
2022-11-24T00:51:34.128Z,12.60
2022-11-24T00:54:36.488Z,13.32
2022-11-24T00:57:38.565Z,15.52
2022-11-24T01:00:40.911Z,13.52
2022-11-24T01:03:43.419Z,14.25
2022-11-24T01:06:45.766Z,15.57
2022-11-24T01:09:47.853Z,15.80
2022-11-24T01:12:50.368Z,17.37
2022-11-24T01:15:52.554Z,15.68
2022-11-24T01:18:55.685Z,16.62
2022-11-24T01:21:57.761Z,16.42
2022-11-24T01:25:00.105Z,15.93
2022-11-24T01:28:02.193Z,17.35
2022-11-24T01:31:07.012Z,16.52
2022-11-24T01:34:09.305Z,19.30
2022-11-24T01:37:11.924Z,18.23
2022-11-24T01:40:14.133Z,22.20
2022-11-24T01:43:19.043Z,15.40
2022-11-24T01:46:44.842Z,17.65
2022-11-24T01:49:51.443Z,18.12
2022-11-24T01:52:55.559Z,19.05
2022-11-24T01:55:58.678Z,21.58
2022-11-24T01:59:02.740Z,21.87
2022-11-24T02:02:05.767Z,22.08
2022-11-24T02:05:33.253Z,22.87
2022-11-24T02:09:07.951Z,23.48
2022-11-24T02:12:10.393Z,24.73
2022-11-24T02:15:15.385Z,23.67
2022-11-24T02:18:17.482Z,24.73
2022-11-24T02:21:19.954Z,23.90
2022-11-24T02:24:32.983Z,27.45
2022-11-24T02:27:35.789Z,27.73
2022-11-24T02:30:38.036Z,28.20
2022-11-24T02:33:40.823Z,25.92
2022-11-24T02:36:42.934Z,26.77
2022-11-24T02:39:45.282Z,27.73
2022-11-24T02:42:47.582Z,27.25
2022-11-24T02:45:50.094Z,29.58
2022-11-24T02:48:52.289Z,29.30
2022-11-24T02:51:54.631Z,31.92
2022-11-24T02:54:56.725Z,34.15
2022-11-24T02:57:59.188Z,30.62
2022-11-24T03:01:01.510Z,33.08
2022-11-24T03:04:03.988Z,34.03
2022-11-24T03:07:06.294Z,34.20
2022-11-24T03:10:09.078Z,34.38
2022-11-24T03:13:11.395Z,36.75
2022-11-24T03:16:13.852Z,34.40
2022-11-24T03:19:15.974Z,39.13
2022-11-24T03:22:18.402Z,40.20
2022-11-24T03:25:20.567Z,37.83
2022-11-24T03:28:22.949Z,43.58
2022-11-24T03:31:25.132Z,41.35
2022-11-24T03:34:27.521Z,42.53
2022-11-24T03:37:29.785Z,41.40
2022-11-24T03:40:32.138Z,48.53
2022-11-24T03:43:37.808Z,43.22
2022-11-24T03:46:43.067Z,42.92
2022-11-24T03:49:45.767Z,46.60
2022-11-24T03:52:48.183Z,42.13
2022-11-24T03:55:50.428Z,42.35
2022-11-24T03:58:52.776Z,42.40
2022-11-24T04:01:55.030Z,47.53
2022-11-24T04:04:57.419Z,43.38
2022-11-24T04:08:02.944Z,43.38
2022-11-24T04:11:05.504Z,44.65
2022-11-24T04:14:12.089Z,44.67
2022-11-24T04:17:15.846Z,45.72
2022-11-24T04:20:17.986Z,46.17
2022-11-24T04:23:20.367Z,48.35
2022-11-24T04:26:22.475Z,50.42
2022-11-24T04:29:24.821Z,47.80
2022-11-24T04:32:26.934Z,43.45
2022-11-24T04:35:29.351Z,49.88
2022-11-24T04:39:23.990Z,48.38
2022-11-24T04:41:53.837Z,49.20
2022-11-24T04:44:56.212Z,49.38
2022-11-24T04:47:58.592Z,53.65
2022-11-24T04:51:05.459Z,46.50
2022-11-24T04:54:10.269Z,52.40
2022-11-24T04:57:17.895Z,51.78
2022-11-24T05:00:20.538Z,55.08
2022-11-24T05:03:22.644Z,60.63
2022-11-24T05:06:25.550Z,61.65
2022-11-24T05:09:41.945Z,61.67
2022-11-24T05:12:57.668Z,59.28
2022-11-24T05:16:01.295Z,58.25
2022-11-24T05:19:03.785Z,57.70
2022-11-24T05:22:05.895Z,57.62
2022-11-24T05:25:08.692Z,59.88
2022-11-24T05:28:10.921Z,56.05
2022-11-24T05:31:13.343Z,55.22
2022-11-24T05:34:15.829Z,55.22
2022-11-24T05:37:18.229Z,54.42
2022-11-24T05:40:20.379Z,49.85
2022-11-24T05:43:22.753Z,46.78
2022-11-24T05:46:24.892Z,41.37
2022-11-24T05:49:27.314Z,41.88
2022-11-24T05:52:29.454Z,35.22
2022-11-24T05:55:32.725Z,31.25
2022-11-24T05:58:34.909Z,33.10
2022-11-24T06:01:37.452Z,34.05
2022-11-24T06:04:40.045Z,31.20
2022-11-24T06:07:42.329Z,35.53
2022-11-24T06:10:44.843Z,29.40
2022-11-24T06:13:48.654Z,30.48
2022-11-24T06:16:51.388Z,30.10
2022-11-24T06:19:53.696Z,29.30
2022-11-24T06:22:58.627Z,27.40
2022-11-24T06:26:01.516Z,33.28
2022-11-24T06:29:04.190Z,35.63
2022-11-24T06:32:06.506Z,37.17
2022-11-24T06:35:09.067Z,41.70
2022-11-24T06:38:11.200Z,40.22
2022-11-24T06:41:15.590Z,36.03
2022-11-24T06:44:17.793Z,39.90
2022-11-24T06:47:20.191Z,40.42
2022-11-24T06:50:22.939Z,44.53
2022-11-24T06:53:25.347Z,38.03
2022-11-24T06:56:27.888Z,31.67
2022-11-24T06:59:30.426Z,35.17
2022-11-24T07:02:32.884Z,31.08
2022-11-24T07:05:35.422Z,33.22
2022-11-24T07:08:37.581Z,34.42
2022-11-24T07:11:40.141Z,38.47
2022-11-24T07:14:42.243Z,35.42
2022-11-24T07:17:44.618Z,35.95
2022-11-24T07:20:47.032Z,39.03
2022-11-24T07:23:53.023Z,38.47
2022-11-24T07:26:55.113Z,37.92
2022-11-24T07:29:57.513Z,36.42
2022-11-24T07:33:01.049Z,35.13
2022-11-24T07:36:05.583Z,35.58
2022-11-24T07:39:07.671Z,30.33
2022-11-24T07:42:11.833Z,30.25
2022-11-24T07:45:14.145Z,32.63
2022-11-24T07:48:16.978Z,33.45
2022-11-24T07:51:21.351Z,35.20
2022-11-24T07:54:23.702Z,32.00
2022-11-24T07:57:25.842Z,34.15
2022-11-24T08:00:28.322Z,37.10
2022-11-24T08:03:30.698Z,36.97
2022-11-24T08:06:39.654Z,34.30
2022-11-24T08:09:44.353Z,36.38
2022-11-24T08:12:46.491Z,42.17
2022-11-24T08:15:48.820Z,38.15
2022-11-24T08:18:53.338Z,35.58
2022-11-24T08:21:55.881Z,37.92
2022-11-24T08:24:58.014Z,30.52
2022-11-24T08:28:01.286Z,32.90
2022-11-24T08:31:14.596Z,34.95
2022-11-24T08:34:16.959Z,34.00
2022-11-24T08:37:19.159Z,33.88
2022-11-24T08:40:21.760Z,37.42
2022-11-24T08:43:23.874Z,42.70
2022-11-24T08:46:26.489Z,41.90
2022-11-24T08:49:29.080Z,43.70
2022-11-24T08:52:31.574Z,41.13
2022-11-24T08:55:33.717Z,42.55
2022-11-24T08:58:37.051Z,46.85
2022-11-24T09:01:39.407Z,43.42
2022-11-24T09:04:44.332Z,38.92
2022-11-24T09:07:46.555Z,47.60
2022-11-24T09:10:49.049Z,41.50
2022-11-24T09:13:51.561Z,40.92
2022-11-24T09:16:53.984Z,41.35
2022-11-24T09:19:58.960Z,42.33
2022-11-24T09:23:02.598Z,43.72
2022-11-24T09:26:10.283Z,37.38
2022-11-24T09:29:13.681Z,41.80
2022-11-24T09:32:15.868Z,36.00
2022-11-24T09:35:18.553Z,41.47
2022-11-24T09:38:20.654Z,39.70
2022-11-24T09:41:41.899Z,41.22
2022-11-24T09:44:46.780Z,41.42
2022-11-24T09:48:10.700Z,37.65
2022-11-24T09:51:15.148Z,41.67
2022-11-24T09:54:25.386Z,37.08
2022-11-24T09:57:34.273Z,40.55
2022-11-24T10:00:41.409Z,41.25
2022-11-24T10:03:51.419Z,37.65
2022-11-24T10:07:11.962Z,39.58
2022-11-24T10:10:28.568Z,37.95
2022-11-24T10:14:02.992Z,36.65
2022-11-24T10:17:22.017Z,38.15
2022-11-24T10:20:55.002Z,39.55
2022-11-24T10:24:27.305Z,31.58
2022-11-24T10:27:49.324Z,36.25
2022-11-24T10:30:51.922Z,32.63
2022-11-24T10:33:54.052Z,33.80
2022-11-24T10:37:12.330Z,32.28
2022-11-24T10:40:55.471Z,33.30
2022-11-24T10:43:53.417Z,32.13
2022-11-24T10:46:55.815Z,33.35
2022-11-24T10:50:01.710Z,35.95
2022-11-24T10:53:25.844Z,39.30
2022-11-24T10:56:39.108Z,32.88
2022-11-24T10:59:41.219Z,32.95
2022-11-24T11:02:43.824Z,34.22
2022-11-24T11:06:10.480Z,33.60
2022-11-24T11:09:21.624Z,36.25
2022-11-24T11:12:49.668Z,35.58
2022-11-24T11:15:53.935Z,32.83
2022-11-24T11:18:56.589Z,34.63
2022-11-24T11:22:09.701Z,32.65
2022-11-24T11:25:11.882Z,31.17
2022-11-24T11:28:18.330Z,31.95
2022-11-24T11:31:22.995Z,32.13
2022-11-24T11:34:35.577Z,29.25
2022-11-24T11:37:37.841Z,29.77
2022-11-24T11:40:43.590Z,28.30
2022-11-24T11:43:49.556Z,28.45
2022-11-24T11:46:54.750Z,28.70
2022-11-24T11:49:58.459Z,26.27
2022-11-24T11:53:23.546Z,28.50
2022-11-24T11:56:31.090Z,27.13
2022-11-24T12:00:05.548Z,25.77
2022-11-24T12:03:33.458Z,22.42
2022-11-24T12:07:05.010Z,22.67
2022-11-24T12:10:07.503Z,24.98
2022-11-24T12:13:37.627Z,22.98
2022-11-24T12:17:03.071Z,25.15
2022-11-24T12:20:31.090Z,22.25
2022-11-24T12:24:01.534Z,24.10
2022-11-24T12:27:39.839Z,21.42
2022-11-24T12:30:51.181Z,20.88
2022-11-24T12:37:51.821Z,22.48
2022-11-24T12:41:39.744Z,22.10
2022-11-24T12:44:59.654Z,22.77
2022-11-24T12:48:17.338Z,18.77
2022-11-24T12:51:27.289Z,19.48
2022-11-24T12:54:38.717Z,20.98
2022-11-24T12:57:51.001Z,20.08
2022-11-24T13:01:16.106Z,19.48
2022-11-24T13:04:36.346Z,21.98
2022-11-24T13:07:45.564Z,22.73
2022-11-24T13:10:57.528Z,23.87
2022-11-24T13:14:18.128Z,19.23
2022-11-24T13:17:35.143Z,19.83
2022-11-24T13:23:56.528Z,23.12
2022-11-24T13:27:13.909Z,18.15
2022-11-24T13:30:34.501Z,19.83
2022-11-24T13:33:37.093Z,17.67
2022-11-24T13:36:53.228Z,19.05
2022-11-24T13:40:17.709Z,20.30
2022-11-24T13:43:20.790Z,18.60
2022-11-24T13:47:06.208Z,19.98
2022-11-24T13:50:18.527Z,19.58
2022-11-24T13:53:47.082Z,24.30
2022-11-24T13:56:49.495Z,20.23
2022-11-24T13:59:51.614Z,19.70
2022-11-24T14:02:59.343Z,17.52
2022-11-24T14:06:03.037Z,17.55
2022-11-24T14:09:18.415Z,17.30
2022-11-24T14:12:23.779Z,19.37
2022-11-24T14:15:29.427Z,18.67
2022-11-24T14:18:37.586Z,18.23
2022-11-24T14:21:44.402Z,19.95
2022-11-24T14:24:57.943Z,16.70
2022-11-24T14:28:00.507Z,16.95
2022-11-24T14:31:08.271Z,20.92
2022-11-24T14:34:21.084Z,20.67
2022-11-24T14:37:23.523Z,19.58
2022-11-24T14:40:52.012Z,18.85
2022-11-24T14:44:16.402Z,20.75
2022-11-24T14:47:45.144Z,18.58
2022-11-24T14:50:47.742Z,19.50
2022-11-24T14:53:55.203Z,18.35
2022-11-24T14:57:04.119Z,19.27
2022-11-24T15:00:12.246Z,17.23
2022-11-24T15:03:18.639Z,19.05
2022-11-24T15:06:21.150Z,22.77
2022-11-24T15:09:26.556Z,20.37
2022-11-24T15:12:34.441Z,20.88
2022-11-24T15:15:38.725Z,21.30
2022-11-24T15:18:47.522Z,24.67
2022-11-24T15:21:49.987Z,22.80
2022-11-24T15:24:53.693Z,23.95
2022-11-24T15:27:56.703Z,21.85
2022-11-24T15:31:09.684Z,24.58
2022-11-24T15:34:14.232Z,23.83
2022-11-24T15:37:16.398Z,18.17
2022-11-24T15:40:19.936Z,22.58
2022-11-24T15:43:34.249Z,20.50
2022-11-24T15:46:38.685Z,25.52
2022-11-24T15:49:41.073Z,23.38
2022-11-24T15:52:44.196Z,22.87
2022-11-24T15:55:47.546Z,22.62
2022-11-24T15:58:50.153Z,23.27
2022-11-24T16:01:52.487Z,24.58
2022-11-24T16:04:54.986Z,24.05
2022-11-24T16:07:57.169Z,28.17
2022-11-24T16:10:59.559Z,29.10
2022-11-24T16:14:01.771Z,27.15
2022-11-24T16:17:04.274Z,25.62
2022-11-24T16:20:07.623Z,25.25
2022-11-24T16:23:10.119Z,28.48
2022-11-24T16:26:12.356Z,26.52
2022-11-24T16:29:15.046Z,25.62
2022-11-24T16:32:17.159Z,28.17
2022-11-24T16:35:20.029Z,28.20
2022-11-24T16:38:22.210Z,25.77
2022-11-24T16:41:24.589Z,27.08
2022-11-24T16:44:26.692Z,30.25
2022-11-24T16:47:29.173Z,25.80
2022-11-24T16:50:31.408Z,26.77
2022-11-24T16:53:33.932Z,30.95
2022-11-24T16:56:36.204Z,31.30
2022-11-24T16:59:39.020Z,26.27
2022-11-24T17:02:41.213Z,26.98
2022-11-24T17:05:43.917Z,28.85
2022-11-24T17:08:46.709Z,26.42
2022-11-24T17:11:49.202Z,27.60
2022-11-24T17:15:16.335Z,26.80
2022-11-24T17:18:24.574Z,29.10
2022-11-24T17:21:28.110Z,25.90
2022-11-24T17:24:30.524Z,26.77
2022-11-24T17:27:32.921Z,26.23
2022-11-24T17:30:36.870Z,27.48
2022-11-24T17:33:39.094Z,24.77
2022-11-24T17:36:44.635Z,29.90
2022-11-24T17:40:05.665Z,28.65
2022-11-24T17:43:09.145Z,30.08
2022-11-24T17:46:11.333Z,27.95
2022-11-24T17:49:15.488Z,28.58
2022-11-24T17:52:18.145Z,29.23
2022-11-24T17:55:20.853Z,28.45
2022-11-24T17:58:23.003Z,27.90
2022-11-24T18:01:28.665Z,27.77
2022-11-24T18:04:31.294Z,31.30
2022-11-24T18:07:36.169Z,27.58
2022-11-24T18:10:39.141Z,26.50
2022-11-24T18:13:56.694Z,26.87
2022-11-24T18:17:02.752Z,28.02
2022-11-24T18:20:05.662Z,24.65
2022-11-24T18:23:08.015Z,26.95
2022-11-24T18:26:13.933Z,23.83
2022-11-24T18:29:16.927Z,25.60
2022-11-24T18:32:19.172Z,27.92
2022-11-24T18:35:21.645Z,25.35
2022-11-24T18:38:24.263Z,24.37
2022-11-24T18:41:27.180Z,25.50
2022-11-24T18:44:29.398Z,28.30
2022-11-24T18:47:31.950Z,25.23
2022-11-24T18:50:34.229Z,27.30
2022-11-24T18:53:36.771Z,23.50
2022-11-24T18:56:38.865Z,26.37
2022-11-24T18:59:41.524Z,27.23
2022-11-24T19:02:43.883Z,26.62
2022-11-24T19:05:46.513Z,25.35
2022-11-24T19:08:49.115Z,24.10
2022-11-24T19:11:51.534Z,24.63
2022-11-24T19:14:54.391Z,25.75
2022-11-24T19:17:56.914Z,28.50
2022-11-24T19:20:59.041Z,26.10
2022-11-24T19:24:05.338Z,27.50
2022-11-24T19:27:08.194Z,27.23
2022-11-24T19:30:10.870Z,26.50
2022-11-24T19:33:13.233Z,25.10
2022-11-24T19:36:18.540Z,31.20
2022-11-24T19:39:20.822Z,28.27
2022-11-24T19:42:23.361Z,25.40
2022-11-24T19:45:25.670Z,29.60
2022-11-24T19:48:36.462Z,31.10
2022-11-24T19:51:39.825Z,26.23
2022-11-24T19:54:42.430Z,27.52
2022-11-24T19:57:44.621Z,24.40
2022-11-24T20:00:47.118Z,28.58
2022-11-24T20:03:56.016Z,23.77
2022-11-24T20:06:58.303Z,30.35
2022-11-24T20:10:06.097Z,27.10
2022-11-24T20:13:09.816Z,26.65
2022-11-24T20:16:26.599Z,25.23
2022-11-24T20:19:29.115Z,26.15
2022-11-24T20:22:31.835Z,26.83
2022-11-24T20:25:37.229Z,24.12
2022-11-24T20:28:40.634Z,27.15
2022-11-24T20:31:45.859Z,25.48
2022-11-24T20:34:49.303Z,25.70
2022-11-24T20:37:51.434Z,23.50
2022-11-24T20:41:03.483Z,25.90
2022-11-24T20:44:13.616Z,25.62
2022-11-24T20:47:16.144Z,26.17
2022-11-24T20:50:18.497Z,26.10
2022-11-24T20:53:20.958Z,28.48
2022-11-24T20:56:28.717Z,23.05
2022-11-24T20:59:31.341Z,27.17
2022-11-24T21:02:33.593Z,27.80
2022-11-24T21:05:36.064Z,28.15
2022-11-24T21:08:39.855Z,26.23
2022-11-24T21:11:43.221Z,24.95
2022-11-24T21:14:45.548Z,25.35
2022-11-24T21:17:47.942Z,23.52
2022-11-24T21:20:50.340Z,25.37
2022-11-24T21:23:56.457Z,26.80
2022-11-24T21:26:58.722Z,25.60
2022-11-24T21:30:01.212Z,28.00
2022-11-24T21:33:05.116Z,26.70
2022-11-24T21:36:08.367Z,27.83
2022-11-24T21:39:13.634Z,25.02
2022-11-24T21:42:16.455Z,26.48
2022-11-24T21:45:18.597Z,28.80
2022-11-24T21:48:21.167Z,27.50
2022-11-24T21:51:23.315Z,27.45
2022-11-24T21:54:25.826Z,26.58
2022-11-24T21:57:28.493Z,32.05
2022-11-24T22:00:30.870Z,32.55
2022-11-24T22:03:33.284Z,33.65
2022-11-24T22:06:35.561Z,32.05
2022-11-24T22:09:38.013Z,32.53
2022-11-24T22:12:40.208Z,35.28
2022-11-24T22:15:43.035Z,31.95
2022-11-24T22:18:46.013Z,30.65
2022-11-24T22:21:49.453Z,32.60
2022-11-24T22:24:51.661Z,36.00
2022-11-24T22:27:54.158Z,33.67
2022-11-24T22:30:56.272Z,31.08
2022-11-24T22:34:00.318Z,32.28
2022-11-24T22:37:02.610Z,33.75
2022-11-24T22:40:05.688Z,34.75
2022-11-24T22:43:07.806Z,34.72
2022-11-24T22:46:11.554Z,34.70
2022-11-24T22:49:14.055Z,36.40
2022-11-24T22:52:16.563Z,36.05
2022-11-24T22:55:18.732Z,36.78
2022-11-24T22:58:21.185Z,33.63
2022-11-24T23:01:25.030Z,36.95
2022-11-24T23:04:27.642Z,39.00
2022-11-24T23:07:29.979Z,38.30
2022-11-24T23:10:32.443Z,38.22
2022-11-24T23:13:34.843Z,37.17
2022-11-24T23:16:37.424Z,37.05
2022-11-24T23:19:39.632Z,33.60
2022-11-24T23:22:42.090Z,37.70
2022-11-24T23:25:44.196Z,35.72
2022-11-24T23:28:46.843Z,33.40
2022-11-24T23:31:49.066Z,34.55
2022-11-24T23:34:51.495Z,37.30
2022-11-24T23:38:07.128Z,35.60
2022-11-24T23:41:12.590Z,31.58
2022-11-24T23:44:15.369Z,31.73
2022-11-24T23:47:17.788Z,38.38
2022-11-24T23:50:19.949Z,33.70
2022-11-24T23:53:22.673Z,34.03
2022-11-24T23:56:33.386Z,30.67
2022-11-24T23:59:36.096Z,32.40
